Station Historical Data
Daily Summary for November 14, 2017 Units:  English    Metric   Both
« Previous Day
Next Day »
Daily Weekly Monthly Yearly Custom
  High: Low: Average:
Temperature: 53.1 °F 45.5 °F 48.6 °F
Dew Point: 48.8 °F 42.5 °F 45.3 °F
Humidity: 94 % 81 % 88 %
Wind Speed: 11.0 mph 0.0 mph 0.6 mph
Wind Gust: 13.0 mph - -
Wind:- - SSE
Pressure: 30.29 in 30.15 in -
Precipitation: 0.00 in    
Historical Graphs
 
 
Tabular Data for November 14, 2017
Time Temperature Dew Point Pressure Wind Wind Speed Wind Gust Humidity Rainfall Rate (Hourly) solar
00:02 49.4 °F 46.3 °F 30.27 in Calm     89 % 0.15 in 0.00 W/m2
00:07 49.4 °F 46.3 °F 30.27 in SW 4.0 mph 9.0 mph 89 % 0.06 in 0.00 W/m2
00:12 49.3 °F 46.2 °F 30.27 in Calm     89 % 0.04 in 0.00 W/m2
00:17 49.2 °F 46.1 °F 30.26 in Calm     89 % 0.00 in 0.00 W/m2
00:22 49.2 °F 46.1 °F 30.27 in Calm     89 % 0.00 in 0.00 W/m2
00:27 49.2 °F 46.1 °F 30.27 in Calm     89 % 0.00 in 0.00 W/m2
00:32 49.1 °F 46.0 °F 30.27 in Calm     89 % 0.00 in 0.00 W/m2
00:37 49.1 °F 46.0 °F 30.27 in Calm     89 % 0.00 in 0.00 W/m2
00:42 49.1 °F 46.0 °F 30.27 in Calm     89 % 0.00 in 0.00 W/m2
00:47 49.0 °F 45.9 °F 30.27 in Calm     89 % 0.00 in 0.00 W/m2
00:52 49.0 °F 45.9 °F 30.27 in Calm     89 % 0.00 in 0.00 W/m2
00:57 49.0 °F 45.9 °F 30.27 in Calm     89 % 0.00 in 0.00 W/m2
01:02 48.9 °F 45.8 °F 30.27 in Calm     89 % 0.00 in 0.00 W/m2
01:07 48.8 °F 45.7 °F 30.27 in Calm     89 % 0.00 in 0.00 W/m2
01:12 48.8 °F 45.7 °F 30.27 in Calm     89 % 0.00 in 0.00 W/m2
01:17 48.8 °F 45.7 °F 30.27 in Calm     89 % 0.00 in 0.00 W/m2
01:22 48.7 °F 45.6 °F 30.27 in Calm     89 % 0.00 in 0.00 W/m2
01:27 48.7 °F 45.6 °F 30.27 in Calm     89 % 0.00 in 0.00 W/m2
01:32 48.7 °F 45.6 °F 30.28 in Calm     89 % 0.00 in 0.00 W/m2
01:38 48.7 °F 45.6 °F 30.28 in Calm     89 % 0.00 in 0.00 W/m2
01:43 48.6 °F 45.5 °F 30.28 in Calm     89 % 0.00 in 0.00 W/m2
01:48 48.6 °F 45.5 °F 30.28 in Calm   5.0 mph 89 % 0.00 in 0.00 W/m2
01:53 48.6 °F 45.5 °F 30.28 in Calm     89 % 0.00 in 0.00 W/m2
02:03 48.6 °F 45.5 °F 30.28 in Calm     89 % 0.00 in 0.00 W/m2
02:08 48.6 °F 45.5 °F 30.28 in Calm     89 % 0.00 in 0.00 W/m2
02:13 48.6 °F 45.5 °F 30.28 in Calm     89 % 0.00 in 0.00 W/m2
02:18 48.5 °F 45.4 °F 30.28 in Calm     89 % 0.00 in 0.00 W/m2
02:23 48.5 °F 45.4 °F 30.28 in Calm     89 % 0.00 in 0.00 W/m2
02:28 48.4 °F 45.3 °F 30.28 in Calm     89 % 0.00 in 0.00 W/m2
02:33 48.3 °F 45.2 °F 30.28 in Calm     89 % 0.00 in 0.00 W/m2
02:38 48.3 °F 45.2 °F 30.28 in Calm     89 % 0.00 in 0.00 W/m2
02:43 48.3 °F 45.2 °F 30.28 in Calm     89 % 0.00 in 0.00 W/m2
02:48 48.2 °F 45.1 °F 30.28 in Calm     89 % 0.00 in 0.00 W/m2
02:53 48.1 °F 45.0 °F 30.28 in Calm     89 % 0.00 in 0.00 W/m2
02:58 48.0 °F 44.9 °F 30.28 in Calm     89 % 0.00 in 0.00 W/m2
03:03 48.0 °F 44.9 °F 30.28 in Calm     89 % 0.00 in 0.00 W/m2
03:05 48.0 °F 44.9 °F 30.28 in Calm     89 % 0.00 in 0.00 W/m2
03:10 48.0 °F 44.9 °F 30.28 in Calm     89 % 0.00 in 0.00 W/m2
03:15 47.9 °F 44.8 °F 30.28 in Calm     89 % 0.00 in 0.00 W/m2
03:20 47.8 °F 44.7 °F 30.28 in Calm     89 % 0.00 in 0.00 W/m2
03:25 47.7 °F 44.6 °F 30.28 in Calm     89 % 0.00 in 0.00 W/m2
03:30 47.6 °F 44.5 °F 30.28 in Calm     89 % 0.00 in 0.00 W/m2
03:35 47.5 °F 44.4 °F 30.28 in Calm     89 % 0.00 in 0.00 W/m2
03:40 47.3 °F 44.2 °F 30.28 in Calm     89 % 0.00 in 0.00 W/m2
03:45 47.3 °F 44.2 °F 30.28 in Calm     89 % 0.00 in 0.00 W/m2
03:50 47.3 °F 44.2 °F 30.28 in Calm     89 % 0.00 in 0.00 W/m2
03:55 47.3 °F 44.2 °F 30.28 in Calm     89 % 0.00 in 0.00 W/m2
04:00 47.3 °F 44.2 °F 30.28 in Calm   1.0 mph 89 % 0.00 in 0.00 W/m2
04:05 47.3 °F 44.2 °F 30.28 in Calm   1.0 mph 89 % 0.00 in 0.00 W/m2
04:10 47.3 °F 44.2 °F 30.28 in Calm     89 % 0.00 in 0.00 W/m2
04:15 47.2 °F 44.1 °F 30.28 in Calm     89 % 0.00 in 0.00 W/m2
04:20 47.2 °F 44.1 °F 30.28 in Calm     89 % 0.00 in 0.00 W/m2
04:35 47.2 °F 44.1 °F 30.28 in Calm     89 % 0.00 in 0.00 W/m2
04:41 47.2 °F 44.1 °F 30.29 in Calm     89 % 0.00 in 0.00 W/m2
04:46 47.2 °F 44.1 °F 30.29 in Calm     89 % 0.00 in 0.00 W/m2
04:51 47.3 °F 44.2 °F 30.28 in Calm     89 % 0.00 in 0.00 W/m2
04:56 47.3 °F 44.2 °F 30.28 in Calm     89 % 0.00 in 0.00 W/m2
05:01 47.4 °F 44.3 °F 30.29 in Calm     89 % 0.00 in 0.00 W/m2
05:06 47.4 °F 44.3 °F 30.29 in Calm     89 % 0.00 in 0.00 W/m2
05:11 47.5 °F 44.4 °F 30.28 in Calm   4.0 mph 89 % 0.00 in 0.00 W/m2
05:16 47.5 °F 44.4 °F 30.28 in Calm     89 % 0.00 in 0.00 W/m2
05:21 47.5 °F 44.4 °F 30.28 in Calm     89 % 0.00 in 0.00 W/m2
05:26 47.5 °F 44.4 °F 30.28 in Calm     89 % 0.00 in 0.00 W/m2
05:27 47.5 °F 44.4 °F 30.28 in SE 1.0 mph 1.0 mph 89 % 0.00 in 0.00 W/m2
05:32 47.5 °F 44.4 °F 30.28 in Calm   7.0 mph 89 % 0.00 in 0.00 W/m2
05:37 47.4 °F 44.3 °F 30.28 in Calm     89 % 0.00 in 0.00 W/m2
05:42 47.4 °F 44.3 °F 30.28 in Calm   7.0 mph 89 % 0.00 in 0.00 W/m2
05:47 47.4 °F 44.3 °F 30.28 in Calm   7.0 mph 89 % 0.00 in 0.00 W/m2
05:52 47.3 °F 44.2 °F 30.28 in ESE 4.0 mph 5.0 mph 89 % 0.00 in 0.00 W/m2
05:57 47.3 °F 44.2 °F 30.28 in Calm     89 % 0.00 in 0.00 W/m2
06:02 47.2 °F 44.1 °F 30.28 in Calm   5.0 mph 89 % 0.00 in 0.00 W/m2
06:07 47.1 °F 44.0 °F 30.28 in Calm   8.0 mph 89 % 0.00 in 0.00 W/m2
06:12 47.1 °F 44.0 °F 30.28 in Calm   1.0 mph 89 % 0.00 in 0.00 W/m2
06:17 47.0 °F 43.9 °F 30.28 in ESE 2.0 mph 7.0 mph 89 % 0.00 in 0.00 W/m2
06:22 46.9 °F 43.8 °F 30.28 in Calm   6.0 mph 89 % 0.00 in 0.00 W/m2
06:27 46.8 °F 43.7 °F 30.28 in Calm   6.0 mph 89 % 0.00 in 0.00 W/m2
06:32 46.7 °F 43.6 °F 30.28 in Calm     89 % 0.00 in 0.00 W/m2
06:37 46.7 °F 43.6 °F 30.28 in Calm   11.0 mph 89 % 0.00 in 0.00 W/m2
06:42 46.6 °F 43.5 °F 30.28 in Calm   1.0 mph 89 % 0.00 in 0.00 W/m2
06:47 46.5 °F 43.4 °F 30.28 in Calm   5.0 mph 89 % 0.00 in 5.00 W/m2
06:52 46.4 °F 43.3 °F 30.28 in ESE 5.0 mph 5.0 mph 89 % 0.00 in 9.00 W/m2
06:57 46.4 °F 43.3 °F 30.28 in Calm   7.0 mph 89 % 0.00 in 12.00 W/m2
07:02 46.3 °F 43.2 °F 30.28 in Calm   7.0 mph 89 % 0.00 in 21.00 W/m2
07:07 46.2 °F 43.1 °F 30.28 in ESE 4.0 mph 6.0 mph 89 % 0.00 in 30.00 W/m2
07:12 46.1 °F 43.0 °F 30.28 in Calm   5.0 mph 89 % 0.00 in 46.00 W/m2
07:17 46.0 °F 43.0 °F 30.29 in Calm   12.0 mph 89 % 0.00 in 54.00 W/m2
07:22 45.9 °F 42.8 °F 30.29 in Calm   11.0 mph 89 % 0.00 in 62.00 W/m2
07:27 45.8 °F 42.8 °F 30.29 in Calm   6.0 mph 89 % 0.00 in 72.00 W/m2
07:32 45.8 °F 42.8 °F 30.29 in Calm   6.0 mph 89 % 0.00 in 83.00 W/m2
07:37 45.7 °F 42.7 °F 30.29 in Calm   12.0 mph 89 % 0.00 in 81.00 W/m2
07:42 45.6 °F 42.5 °F 30.29 in Calm   4.0 mph 89 % 0.00 in 120.00 W/m2
07:47 45.6 °F 42.5 °F 30.29 in Calm   9.0 mph 89 % 0.00 in 128.00 W/m2
07:52 45.5 °F 42.5 °F 30.29 in Calm     89 % 0.00 in 144.00 W/m2
07:57 45.5 °F 42.5 °F 30.29 in Calm   5.0 mph 89 % 0.00 in 116.00 W/m2
08:02 45.5 °F 42.5 °F 30.29 in Calm   6.0 mph 89 % 0.00 in 142.00 W/m2
08:07 45.5 °F 42.5 °F 30.28 in ESE 7.0 mph 12.0 mph 89 % 0.00 in 49.00 W/m2
08:12 45.5 °F 42.5 °F 30.28 in East 4.0 mph 9.0 mph 89 % 0.00 in 225.00 W/m2
08:17 45.5 °F 42.5 °F 30.28 in Calm   6.0 mph 89 % 0.00 in 241.00 W/m2
08:22 45.6 °F 42.5 °F 30.28 in ESE 8.0 mph 9.0 mph 89 % 0.00 in 253.00 W/m2
08:27 45.6 °F 42.5 °F 30.28 in ESE 2.0 mph 5.0 mph 89 % 0.00 in 269.00 W/m2
08:32 45.7 °F 42.7 °F 30.28 in ESE 9.0 mph 9.0 mph 89 % 0.00 in 283.00 W/m2
08:37 45.7 °F 42.7 °F 30.28 in Calm   1.0 mph 89 % 0.00 in 297.00 W/m2
08:43 45.8 °F 42.8 °F 30.28 in Calm   11.0 mph 89 % 0.00 in 313.00 W/m2
08:48 45.9 °F 42.8 °F 30.28 in Calm   13.0 mph 89 % 0.00 in 325.00 W/m2
08:53 46.0 °F 43.2 °F 30.28 in East 11.0 mph 11.0 mph 90 % 0.00 in 341.00 W/m2
08:58 46.2 °F 43.4 °F 30.28 in Calm   5.0 mph 90 % 0.00 in 353.00 W/m2
09:03 46.4 °F 43.3 °F 30.27 in East 7.0 mph 8.0 mph 89 % 0.00 in 366.00 W/m2
09:08 46.7 °F 43.9 °F 30.27 in East 2.0 mph 9.0 mph 90 % 0.00 in 362.00 W/m2
09:13 46.8 °F 44.0 °F 30.27 in ESE 4.0 mph 11.0 mph 90 % 0.00 in 336.00 W/m2
09:18 46.9 °F 44.1 °F 30.27 in Calm   11.0 mph 90 % 0.00 in 383.00 W/m2
09:23 47.0 °F 44.2 °F 30.27 in ESE 2.0 mph 11.0 mph 90 % 0.00 in 415.00 W/m2
09:28 47.2 °F 44.4 °F 30.26 in Calm   8.0 mph 90 % 0.00 in 425.00 W/m2
09:33 47.3 °F 44.5 °F 30.26 in Calm   7.0 mph 90 % 0.00 in 434.00 W/m2
09:38 47.4 °F 44.6 °F 30.26 in Calm   1.0 mph 90 % 0.00 in 445.00 W/m2
09:43 47.4 °F 44.6 °F 30.26 in Calm   12.0 mph 90 % 0.00 in 454.00 W/m2
09:48 47.5 °F 44.7 °F 30.26 in ESE 5.0 mph 8.0 mph 90 % 0.00 in 464.00 W/m2
09:53 47.6 °F 44.8 °F 30.26 in Calm   6.0 mph 90 % 0.00 in 473.00 W/m2
09:58 47.7 °F 44.9 °F 30.26 in Calm   7.0 mph 90 % 0.00 in 482.00 W/m2
10:03 47.8 °F 45.0 °F 30.26 in Calm     90 % 0.00 in 490.00 W/m2
10:08 47.9 °F 45.1 °F 30.26 in Calm   2.0 mph 90 % 0.00 in 496.00 W/m2
10:13 48.2 °F 46.6 °F 30.26 in Calm   4.0 mph 94 % 0.00 in 504.00 W/m2
10:18 48.5 °F 45.7 °F 30.26 in Calm     90 % 0.00 in 512.00 W/m2
10:23 48.7 °F 45.9 °F 30.26 in Calm     90 % 0.00 in 519.00 W/m2
10:28 48.9 °F 46.1 °F 30.26 in Calm     90 % 0.00 in 524.00 W/m2
10:29 48.9 °F 46.1 °F 30.26 in Calm     90 % 0.00 in 526.00 W/m2
10:34 49.0 °F 46.2 °F 30.26 in Calm     90 % 0.00 in 531.00 W/m2
10:39 49.1 °F 46.3 °F 30.26 in Calm     90 % 0.00 in 536.00 W/m2
10:44 49.2 °F 46.4 °F 30.26 in Calm     90 % 0.00 in 540.00 W/m2
10:49 49.3 °F 46.5 °F 30.25 in Calm     90 % 0.00 in 547.00 W/m2
10:54 49.4 °F 46.6 °F 30.25 in Calm   1.0 mph 90 % 0.00 in 550.00 W/m2
10:59 49.6 °F 46.8 °F 30.25 in Calm   8.0 mph 90 % 0.00 in 555.00 W/m2
11:04 49.8 °F 47.0 °F 30.25 in Calm   4.0 mph 90 % 0.00 in 559.00 W/m2
11:09 50.0 °F 47.2 °F 30.25 in Calm   7.0 mph 90 % 0.00 in 561.00 W/m2
11:12 50.1 °F 47.3 °F 30.25 in Calm     90 % 0.00 in 563.00 W/m2
11:17 50.1 °F 47.3 °F 30.25 in Calm   8.0 mph 90 % 0.00 in 564.00 W/m2
11:22 50.1 °F 47.3 °F 30.25 in Calm   4.0 mph 90 % 0.00 in 566.00 W/m2
11:27 50.3 °F 47.5 °F 30.25 in Calm     90 % 0.00 in 568.00 W/m2
11:32 50.4 °F 47.6 °F 30.25 in SSE 5.0 mph 8.0 mph 90 % 0.00 in 570.00 W/m2
11:37 50.5 °F 47.4 °F 30.25 in Calm     89 % 0.00 in 570.00 W/m2
11:42 50.0 °F 47.2 °F 30.25 in Calm     90 % 0.00 in 570.00 W/m2
11:47 50.1 °F 47.3 °F 30.25 in Calm     90 % 0.00 in 571.00 W/m2
11:52 50.3 °F 47.5 °F 30.24 in Calm     90 % 0.00 in 570.00 W/m2
11:57 50.4 °F 47.6 °F 30.24 in Calm   7.0 mph 90 % 0.00 in 570.00 W/m2
12:02 50.6 °F 47.8 °F 30.24 in South 4.0 mph 4.0 mph 90 % 0.00 in 568.00 W/m2
12:07 50.8 °F 47.7 °F 30.24 in Calm   2.0 mph 89 % 0.00 in 570.00 W/m2
12:12 51.1 °F 47.7 °F 30.24 in Calm     88 % 0.00 in 570.00 W/m2
12:17 51.3 °F 48.2 °F 30.24 in Calm     89 % 0.00 in 566.00 W/m2
12:22 51.5 °F 48.1 °F 30.24 in Calm   10.0 mph 88 % 0.00 in 566.00 W/m2
12:27 51.6 °F 47.9 °F 30.24 in Calm   6.0 mph 87 % 0.00 in 564.00 W/m2
12:32 51.8 °F 48.1 °F 30.23 in Calm     87 % 0.00 in 559.00 W/m2
12:37 52.0 °F 48.3 °F 30.23 in Calm   4.0 mph 87 % 0.00 in 554.00 W/m2
12:42 52.2 °F 48.8 °F 30.23 in Calm   4.0 mph 88 % 0.00 in 548.00 W/m2
12:47 52.3 °F 47.9 °F 30.23 in Calm     85 % 0.00 in 540.00 W/m2
12:52 52.6 °F 48.5 °F 30.23 in Calm   4.0 mph 86 % 0.00 in 538.00 W/m2
12:57 52.6 °F 48.8 °F 30.23 in Calm     87 % 0.00 in 531.00 W/m2
13:02 52.6 °F 48.5 °F 30.22 in SSW 4.0 mph 6.0 mph 86 % 0.00 in 485.00 W/m2
13:07 52.6 °F 48.2 °F 30.22 in Calm   5.0 mph 85 % 0.00 in 510.00 W/m2
13:12 52.5 °F 47.8 °F 30.22 in SSW 5.0 mph 8.0 mph 84 % 0.00 in 510.00 W/m2
13:17 52.6 °F 47.6 °F 30.22 in Calm   4.0 mph 83 % 0.00 in 476.00 W/m2
13:22 52.8 °F 48.1 °F 30.22 in SSW 4.0 mph 7.0 mph 84 % 0.00 in 478.00 W/m2
13:28 52.8 °F 47.8 °F 30.21 in Calm   2.0 mph 83 % 0.00 in 490.00 W/m2
13:33 53.0 °F 48.3 °F 30.21 in SSW 4.0 mph 7.0 mph 84 % 0.00 in 457.00 W/m2
13:38 52.8 °F 47.5 °F 30.21 in Calm   5.0 mph 82 % 0.00 in 499.00 W/m2
13:43 52.8 °F 47.8 °F 30.21 in SSW 5.0 mph 8.0 mph 83 % 0.00 in 466.00 W/m2
13:48 52.8 °F 47.5 °F 30.20 in Calm   5.0 mph 82 % 0.00 in 431.00 W/m2
13:53 52.9 °F 47.6 °F 30.20 in Calm   5.0 mph 82 % 0.00 in 403.00 W/m2
13:58 53.1 °F 48.4 °F 30.20 in SSW 5.0 mph 7.0 mph 84 % 0.00 in 392.00 W/m2
14:03 53.0 °F 48.0 °F 30.20 in Calm   7.0 mph 83 % 0.00 in 374.00 W/m2
14:08 53.0 °F 48.0 °F 30.20 in SSW 8.0 mph 8.0 mph 83 % 0.00 in 343.00 W/m2
14:13 53.0 °F 47.3 °F 30.20 in Calm   6.0 mph 81 % 0.00 in 367.00 W/m2
14:18 53.0 °F 47.7 °F 30.20 in SSW 7.0 mph 7.0 mph 82 % 0.00 in 267.00 W/m2
14:23 53.0 °F 47.7 °F 30.20 in Calm     82 % 0.00 in 285.00 W/m2
14:28 53.1 °F 48.1 °F 30.19 in Calm     83 % 0.00 in 320.00 W/m2
14:33 53.1 °F 47.8 °F 30.19 in Calm     82 % 0.00 in 288.00 W/m2
14:38 53.0 °F 48.3 °F 30.20 in Calm     84 % 0.00 in 271.00 W/m2
14:43 53.0 °F 48.0 °F 30.20 in Calm     83 % 0.00 in 350.00 W/m2
14:48 52.9 °F 47.9 °F 30.20 in Calm   5.0 mph 83 % 0.00 in 292.00 W/m2
14:53 52.9 °F 47.9 °F 30.20 in Calm   8.0 mph 83 % 0.00 in 218.00 W/m2
14:58 52.9 °F 47.9 °F 30.20 in Calm   3.0 mph 83 % 0.00 in 255.00 W/m2
15:03 53.0 °F 48.3 °F 30.19 in Calm     84 % 0.00 in 241.00 W/m2
15:08 52.9 °F 47.9 °F 30.19 in Calm   6.0 mph 83 % 0.00 in 290.00 W/m2
15:13 52.9 °F 48.2 °F 30.19 in Calm     84 % 0.00 in 283.00 W/m2
15:18 52.9 °F 48.2 °F 30.19 in Calm     84 % 0.00 in 123.00 W/m2
15:23 52.9 °F 48.5 °F 30.19 in Calm   1.0 mph 85 % 0.00 in 97.00 W/m2
15:28 52.8 °F 48.4 °F 30.19 in Calm     85 % 0.00 in 216.00 W/m2
15:33 52.8 °F 48.4 °F 30.19 in Calm     85 % 0.00 in 81.00 W/m2
15:38 52.7 °F 48.3 °F 30.19 in Calm     85 % 0.00 in 81.00 W/m2
15:43 52.6 °F 48.2 °F 30.18 in Calm     85 % 0.00 in 83.00 W/m2
15:48 52.6 °F 48.5 °F 30.18 in Calm     86 % 0.00 in 72.00 W/m2
15:53 52.6 °F 48.8 °F 30.18 in Calm     87 % 0.00 in 54.00 W/m2
15:58 52.4 °F 48.7 °F 30.18 in Calm     87 % 0.00 in 69.00 W/m2
16:03 52.3 °F 48.5 °F 30.18 in Calm     87 % 0.00 in 67.00 W/m2
16:08 52.0 °F 48.3 °F 30.18 in Calm     87 % 0.00 in 47.00 W/m2
16:13 51.7 °F 48.0 °F 30.17 in Calm     87 % 0.00 in 37.00 W/m2
16:18 51.4 °F 48.0 °F 30.17 in Calm     88 % 0.00 in 28.00 W/m2
16:23 51.2 °F 47.8 °F 30.17 in Calm     88 % 0.00 in 21.00 W/m2
16:28 50.8 °F 47.4 °F 30.18 in Calm     88 % 0.00 in 19.00 W/m2
16:33 50.5 °F 47.1 °F 30.17 in Calm     88 % 0.00 in 18.00 W/m2
16:38 50.1 °F 46.7 °F 30.17 in Calm     88 % 0.00 in 12.00 W/m2
16:43 50.0 °F 46.9 °F 30.17 in Calm     89 % 0.00 in 9.00 W/m2
16:48 49.8 °F 46.7 °F 30.17 in Calm     89 % 0.00 in 5.00 W/m2
16:54 49.6 °F 46.5 °F 30.17 in Calm     89 % 0.00 in 0.00 W/m2
16:59 49.5 °F 46.4 °F 30.17 in Calm     89 % 0.00 in 0.00 W/m2
17:04 49.2 °F 46.1 °F 30.17 in Calm     89 % 0.00 in 0.00 W/m2
17:09 49.0 °F 45.9 °F 30.17 in Calm     89 % 0.00 in 0.00 W/m2
17:14 48.7 °F 45.6 °F 30.17 in Calm     89 % 0.00 in 0.00 W/m2
17:19 48.4 °F 45.3 °F 30.16 in Calm     89 % 0.00 in 0.00 W/m2
17:24 48.2 °F 45.1 °F 30.16 in Calm     89 % 0.00 in 0.00 W/m2
17:29 47.9 °F 44.8 °F 30.16 in Calm     89 % 0.00 in 0.00 W/m2
17:34 47.8 °F 44.7 °F 30.16 in Calm     89 % 0.00 in 0.00 W/m2
17:39 47.7 °F 44.6 °F 30.15 in Calm     89 % 0.00 in 0.00 W/m2
17:44 47.7 °F 44.6 °F 30.15 in Calm     89 % 0.00 in 0.00 W/m2
17:49 47.6 °F 44.5 °F 30.16 in Calm     89 % 0.00 in 0.00 W/m2
17:54 47.7 °F 44.6 °F 30.15 in Calm     89 % 0.00 in 0.00 W/m2
17:59 47.6 °F 44.5 °F 30.15 in Calm     89 % 0.00 in 0.00 W/m2
18:04 47.6 °F 44.5 °F 30.15 in Calm     89 % 0.00 in 0.00 W/m2
18:09 47.6 °F 44.5 °F 30.16 in Calm     89 % 0.00 in 0.00 W/m2
18:14 47.6 °F 44.5 °F 30.16 in Calm     89 % 0.00 in 0.00 W/m2
18:19 47.7 °F 44.6 °F 30.16 in Calm     89 % 0.00 in 0.00 W/m2
18:24 47.7 °F 44.6 °F 30.16 in Calm   3.0 mph 89 % 0.00 in 0.00 W/m2
18:29 47.7 °F 44.6 °F 30.16 in Calm     89 % 0.00 in 0.00 W/m2
18:34 47.8 °F 44.7 °F 30.16 in Calm     89 % 0.00 in 0.00 W/m2
18:39 47.8 °F 44.7 °F 30.16 in Calm     89 % 0.00 in 0.00 W/m2
18:44 47.8 °F 44.7 °F 30.17 in SSW 1.0 mph 2.0 mph 89 % 0.00 in 0.00 W/m2
18:50 47.8 °F 44.7 °F 30.17 in Calm     89 % 0.00 in 0.00 W/m2
18:55 47.7 °F 44.6 °F 30.16 in Calm   3.0 mph 89 % 0.00 in 0.00 W/m2
19:00 47.6 °F 44.5 °F 30.17 in Calm   4.0 mph 89 % 0.00 in 0.00 W/m2
19:05 47.6 °F 44.5 °F 30.17 in Calm     89 % 0.00 in 0.00 W/m2
19:10 47.5 °F 44.4 °F 30.17 in Calm     89 % 0.00 in 0.00 W/m2
19:15 47.5 °F 44.4 °F 30.17 in Calm     89 % 0.00 in 0.00 W/m2
19:20 47.4 °F 44.3 °F 30.17 in Calm     89 % 0.00 in 0.00 W/m2
19:22 47.5 °F 44.4 °F 30.17 in SSW 3.0 mph 3.0 mph 89 % 0.00 in 0.00 W/m2
19:24 47.5 °F 44.4 °F 30.17 in Calm   4.0 mph 89 % 0.00 in 0.00 W/m2
19:27 47.5 °F 44.4 °F 30.17 in SSW 3.0 mph 4.0 mph 89 % 0.00 in 0.00 W/m2
19:32 47.5 °F 44.4 °F 30.17 in Calm     89 % 0.00 in 0.00 W/m2
19:37 47.4 °F 44.3 °F 30.17 in Calm     89 % 0.00 in 0.00 W/m2
19:38 47.5 °F 44.4 °F 30.17 in Calm     89 % 0.00 in 0.00 W/m2
19:43 47.4 °F 44.3 °F 30.16 in Calm   2.0 mph 89 % 0.00 in 0.00 W/m2
19:48 47.4 °F 44.3 °F 30.16 in Calm   7.0 mph 89 % 0.00 in 0.00 W/m2
19:53 47.3 °F 44.2 °F 30.16 in Calm   7.0 mph 89 % 0.00 in 0.00 W/m2
19:58 47.3 °F 44.2 °F 30.17 in Calm     89 % 0.00 in 0.00 W/m2
20:03 47.3 °F 44.2 °F 30.17 in Calm     89 % 0.00 in 0.00 W/m2
20:08 47.2 °F 44.1 °F 30.18 in Calm     89 % 0.00 in 0.00 W/m2
20:13 47.2 °F 44.1 °F 30.17 in SSW 6.0 mph 6.0 mph 89 % 0.00 in 0.00 W/m2
20:18 47.2 °F 44.1 °F 30.16 in Calm   6.0 mph 89 % 0.00 in 0.00 W/m2
20:23 47.2 °F 44.1 °F 30.17 in South 6.0 mph 10.0 mph 89 % 0.00 in 0.00 W/m2
20:28 47.2 °F 44.1 °F 30.17 in Calm   8.0 mph 89 % 0.00 in 0.00 W/m2
20:33 47.2 °F 44.1 °F 30.18 in Calm     89 % 0.00 in 0.00 W/m2
20:38 47.2 °F 44.1 °F 30.18 in Calm     89 % 0.00 in 0.00 W/m2
20:43 47.2 °F 44.1 °F 30.17 in Calm     89 % 0.00 in 0.00 W/m2
20:48 47.2 °F 44.1 °F 30.17 in Calm   6.0 mph 89 % 0.00 in 0.00 W/m2
20:53 47.2 °F 44.1 °F 30.17 in Calm   6.0 mph 89 % 0.00 in 0.00 W/m2
20:58 47.2 °F 44.1 °F 30.17 in Calm   2.0 mph 89 % 0.00 in 0.00 W/m2
21:03 47.2 °F 44.1 °F 30.17 in Calm     89 % 0.00 in 0.00 W/m2
21:08 47.2 °F 44.1 °F 30.17 in Calm   7.0 mph 89 % 0.00 in 0.00 W/m2
21:13 47.2 °F 44.1 °F 30.17 in Calm   10.0 mph 89 % 0.00 in 0.00 W/m2
21:18 47.2 °F 44.1 °F 30.17 in Calm   8.0 mph 89 % 0.00 in 0.00 W/m2
21:23 47.2 °F 44.1 °F 30.18 in Calm   4.0 mph 89 % 0.00 in 0.00 W/m2
21:28 47.2 °F 44.1 °F 30.18 in Calm   4.0 mph 89 % 0.00 in 0.00 W/m2
21:33 47.2 °F 44.1 °F 30.17 in Calm     89 % 0.00 in 0.00 W/m2
21:38 47.1 °F 44.0 °F 30.17 in SSE 2.0 mph 5.0 mph 89 % 0.00 in 0.00 W/m2
21:43 47.1 °F 44.0 °F 30.17 in Calm   5.0 mph 89 % 0.00 in 0.00 W/m2
21:48 47.1 °F 44.0 °F 30.17 in Calm   4.0 mph 89 % 0.00 in 0.00 W/m2
21:53 47.1 °F 44.0 °F 30.17 in Calm     89 % 0.00 in 0.00 W/m2
21:58 47.2 °F 44.1 °F 30.17 in Calm     89 % 0.00 in 0.00 W/m2
22:04 47.1 °F 44.0 °F 30.18 in Calm     89 % 0.00 in 0.00 W/m2
22:09 47.1 °F 44.0 °F 30.18 in Calm     89 % 0.00 in 0.00 W/m2
22:14 47.1 °F 44.0 °F 30.18 in Calm     89 % 0.00 in 0.00 W/m2
22:19 47.1 °F 44.0 °F 30.18 in Calm     89 % 0.00 in 0.00 W/m2
22:24 47.0 °F 43.9 °F 30.18 in Calm     89 % 0.00 in 0.00 W/m2
22:29 47.0 °F 43.9 °F 30.18 in Calm   1.0 mph 89 % 0.00 in 0.00 W/m2
22:34 47.0 °F 43.9 °F 30.17 in Calm     89 % 0.00 in 0.00 W/m2
22:39 47.0 °F 43.9 °F 30.17 in Calm     89 % 0.00 in 0.00 W/m2
22:44 46.9 °F 43.8 °F 30.17 in SSE 4.0 mph 5.0 mph 89 % 0.00 in 0.00 W/m2
22:49 46.8 °F 43.7 °F 30.17 in Calm   4.0 mph 89 % 0.00 in 0.00 W/m2
22:54 46.8 °F 43.7 °F 30.17 in Calm     89 % 0.00 in 0.00 W/m2
22:59 46.7 °F 43.6 °F 30.17 in Calm   4.0 mph 89 % 0.00 in 0.00 W/m2
23:04 46.7 °F 43.6 °F 30.17 in Calm     89 % 0.00 in 0.00 W/m2
23:09 46.7 °F 43.6 °F 30.17 in Calm     89 % 0.00 in 0.00 W/m2
23:14 46.7 °F 43.6 °F 30.17 in Calm     89 % 0.00 in 0.00 W/m2
23:19 46.7 °F 43.6 °F 30.17 in Calm     89 % 0.00 in 0.00 W/m2
23:24 46.8 °F 43.7 °F 30.18 in Calm     89 % 0.00 in 0.00 W/m2
23:29 46.8 °F 43.7 °F 30.18 in Calm     89 % 0.00 in 0.00 W/m2
23:34 46.8 °F 43.7 °F 30.18 in Calm     89 % 0.00 in 0.00 W/m2
23:39 46.8 °F 43.7 °F 30.18 in Calm     89 % 0.00 in 0.00 W/m2
23:44 46.9 °F 43.8 °F 30.18 in Calm   5.0 mph 89 % 0.00 in 0.00 W/m2
23:49 46.9 °F 43.8 °F 30.17 in SSE 5.0 mph 7.0 mph 89 % 0.00 in 0.00 W/m2
23:54 46.9 °F 43.8 °F 30.17 in Calm   7.0 mph 89 % 0.00 in 0.00 W/m2
23:59 46.9 °F 43.8 °F 30.17 in SSE 4.0 mph 10.0 mph 89 % 0.00 in 0.00 W/m2
Juneau County Weather
Compliments of Weather Underground - 4.5 mb
 WU-history PHP script courtesy of   Juneau County Weather.
powered by Cumulus v1.9.3 (1059)
Ambient Weather VWS v14.00
Top Contact Website Map Copyright © 2007 - 2018 Foresthillweather.com Never base important decisions on this or any weather information obtained from the Internet